Time;durP1;ratioP1;P1;durP2;ratioP2;P2;SDS_P1;SDS_P2;PMS_P1;PMS_P2;Temp;Humidity;BMP_temperature;BMP_pressure;BME280_temperature;BME280_humidity;BME280_pressure;Samples;Min_cycle;Max_cycle;Signal;HPM_P1;HPM_P2
2023/11/21 00:01:17;;;;;;;0.80;0.80;;;;;;;6.81;92.09;97941.34;4994020;28;20769;-77
2023/11/21 00:03:43;;;;;;;0.80;0.80;;;;;;;6.77;92.17;97942.09;4992529;28;20129;-76
2023/11/21 00:06:09;;;;;;;0.70;0.70;;;;;;;6.78;92.52;97943.91;4995221;28;20017;-77
2023/11/21 00:08:34;;;;;;;0.77;0.77;;;;;;;6.75;92.83;97937.59;4994583;28;20069;-76
2023/11/21 00:11:00;;;;;;;0.70;0.70;;;;;;;6.74;92.82;97935.81;4992633;28;20038;-77
2023/11/21 00:13:26;;;;;;;0.80;0.80;;;;;;;6.74;92.89;97931.41;4993094;28;20026;-77
2023/11/21 00:15:51;;;;;;;0.73;0.73;;;;;;;6.77;93.33;97939.47;4992782;28;20042;-76
2023/11/21 00:18:17;;;;;;;0.70;0.70;;;;;;;6.75;93.15;97933.19;4993749;28;20068;-77
2023/11/21 00:20:42;;;;;;;0.70;0.70;;;;;;;6.84;93.34;97933.47;4994138;28;20041;-77
2023/11/21 00:23:09;;;;;;;0.70;0.70;;;;;;;6.83;93.11;97931.69;4993967;28;20096;-77
2023/11/21 00:25:34;;;;;;;0.80;0.80;;;;;;;6.82;92.70;97934.28;4998635;28;20052;-77
2023/11/21 00:28:01;;;;;;;0.70;0.70;;;;;;;6.79;92.24;97932.44;4996386;28;20038;-77
2023/11/21 00:30:28;;;;;;;0.70;0.70;;;;;;;6.97;90.26;97931.22;4995791;28;20030;-76
2023/11/21 00:32:54;;;;;;;0.80;0.80;;;;;;;6.84;91.37;97930.81;4996090;28;20108;-76
2023/11/21 00:35:19;;;;;;;0.80;0.80;;;;;;;6.83;91.50;97929.03;4996844;28;20065;-76
2023/11/21 00:37:45;;;;;;;0.70;0.70;;;;;;;6.93;91.02;97933.75;4980766;28;20029;-76
2023/11/21 00:40:11;;;;;;;0.70;0.70;;;;;;;6.93;90.72;97922.25;5001199;28;20034;-76
2023/11/21 00:42:37;;;;;;;0.70;0.70;;;;;;;7.02;90.42;97925.19;5007269;28;20030;-76
2023/11/21 00:45:03;;;;;;;0.70;0.70;;;;;;;6.98;90.89;97919.75;4995874;28;20502;-76
2023/11/21 00:47:29;;;;;;;0.77;0.77;;;;;;;7.17;89.27;97917.69;4994558;28;20523;-76
2023/11/21 00:49:54;;;;;;;0.70;0.70;;;;;;;7.09;89.98;97919.22;5002697;28;20110;-76
2023/11/21 00:52:22;;;;;;;0.80;0.80;;;;;;;6.98;90.65;97922.41;4993696;28;20053;-76
2023/11/21 00:54:48;;;;;;;0.70;0.70;;;;;;;6.99;91.16;97926.84;5000536;28;20033;-76
2023/11/21 00:57:14;;;;;;;0.73;0.73;;;;;;;7.00;91.43;97931.31;4997479;28;20030;-76
2023/11/21 00:59:39;;;;;;;0.80;0.80;;;;;;;7.00;91.66;97926.00;4994119;28;20026;-76
2023/11/21 01:02:09;;;;;;;0.80;0.80;;;;;;;7.00;91.80;97918.94;4997392;28;20172;-76
2023/11/21 01:04:35;;;;;;;0.75;0.75;;;;;;;7.05;90.59;97927.94;5008239;28;20403;-76
2023/11/21 01:07:00;;;;;;;0.70;0.70;;;;;;;7.05;91.63;97924.41;5010718;28;20037;-76
2023/11/21 01:09:26;;;;;;;0.70;0.70;;;;;;;7.09;91.65;97919.22;4995108;28;20069;-76
2023/11/21 01:11:52;;;;;;;0.70;0.70;;;;;;;7.13;91.51;97922.84;4993037;28;20062;-76
2023/11/21 01:14:17;;;;;;;0.70;0.70;;;;;;;7.04;91.75;97925.22;4994305;28;20478;-77
2023/11/21 01:16:43;;;;;;;0.80;0.80;;;;;;;7.11;92.38;97919.25;5011371;28;20029;-75
2023/11/21 01:19:09;;;;;;;0.80;0.80;;;;;;;7.06;92.26;97919.13;4979413;28;20030;-77
2023/11/21 01:21:34;;;;;;;0.80;0.80;;;;;;;7.09;91.81;97913.00;4997472;28;20070;-76
2023/11/21 01:24:00;;;;;;;0.80;0.80;;;;;;;7.19;91.47;97907.13;4995617;28;20022;-76
2023/11/21 01:26:25;;;;;;;0.80;0.80;;;;;;;7.15;91.55;97918.50;4994272;28;20407;-76
2023/11/21 01:28:50;;;;;;;0.70;0.70;;;;;;;7.11;91.96;97920.16;5011746;28;20492;-76
2023/11/21 01:31:17;;;;;;;0.70;0.70;;;;;;;7.14;92.41;97917.59;4993313;28;20052;-76
2023/11/21 01:33:42;;;;;;;0.80;0.80;;;;;;;7.10;91.94;97914.81;4996293;28;20750;-76
2023/11/21 01:36:08;;;;;;;0.70;0.70;;;;;;;7.13;92.32;97915.78;4978101;28;20029;-76
2023/11/21 01:38:34;;;;;;;0.80;0.80;;;;;;;7.06;92.69;97915.56;5011925;28;20026;-76
2023/11/21 01:41:00;;;;;;;0.70;0.70;;;;;;;7.05;92.81;97919.09;4983003;28;20074;-78
2023/11/21 01:43:27;;;;;;;0.70;0.70;;;;;;;7.12;92.36;97923.69;4994542;28;20036;-77
2023/11/21 01:45:56;;;;;;;0.80;0.80;;;;;;;7.13;92.43;97923.75;4995301;28;20038;-76
2023/11/21 01:48:23;;;;;;;0.70;0.70;;;;;;;7.14;92.27;97914.97;5002529;28;20068;-77
2023/11/21 01:50:51;;;;;;;0.70;0.70;;;;;;;7.14;92.20;97916.72;4994232;28;20506;-76
2023/11/21 01:53:18;;;;;;;0.70;0.70;;;;;;;7.04;92.97;97918.19;4991726;28;20022;-77
2023/11/21 01:55:45;;;;;;;0.70;0.70;;;;;;;7.12;93.17;97918.41;4999045;28;20038;-76
2023/11/21 01:58:12;;;;;;;0.73;0.73;;;;;;;7.14;93.12;97922.03;4983687;28;20045;-77
2023/11/21 02:00:38;;;;;;;0.70;0.70;;;;;;;7.11;93.00;97919.25;4993590;28;20113;-75
2023/11/21 02:03:04;;;;;;;0.70;0.70;;;;;;;7.10;93.34;97917.47;5003144;28;20054;-76
2023/11/21 02:05:29;;;;;;;0.70;0.70;;;;;;;7.12;93.45;97921.06;4993293;28;20609;-76
2023/11/21 02:07:56;;;;;;;0.70;0.70;;;;;;;7.23;93.23;97924.00;4996391;28;20402;-75
2023/11/21 02:10:22;;;;;;;0.63;0.63;;;;;;;7.18;93.33;97924.78;4995309;28;20037;-75
2023/11/21 02:12:50;;;;;;;0.75;0.75;;;;;;;7.10;93.56;97925.44;4992506;28;21029;-76
2023/11/21 02:15:20;;;;;;;0.70;0.70;;;;;;;7.09;93.51;97927.19;4997641;28;20053;-75
2023/11/21 02:17:47;;;;;;;0.70;0.70;;;;;;;7.15;93.30;97929.13;4998952;28;20026;-75
2023/11/21 02:20:17;;;;;;;0.80;0.80;;;;;;;7.10;93.50;97922.78;5010013;28;20034;-75
2023/11/21 02:22:45;;;;;;;0.70;0.70;;;;;;;7.14;93.48;97922.03;4995259;28;20407;-75
2023/11/21 02:25:10;;;;;;;;;;;;;;;7.13;92.76;97920.19;4993635;28;20073;-75
2023/11/21 02:27:37;;;;;;;0.70;0.70;;;;;;;7.15;92.00;97916.75;4994038;28;20208;-76
2023/11/21 02:30:04;;;;;;;0.80;0.80;;;;;;;7.14;92.39;97908.75;4981061;28;20769;-76
2023/11/21 02:32:31;;;;;;;0.80;0.80;;;;;;;7.15;92.09;97907.88;4997116;28;20022;-76
2023/11/21 02:35:00;;;;;;;0.70;0.70;;;;;;;7.12;92.90;97906.03;4996164;28;20022;-76
2023/11/21 02:37:26;;;;;;;0.70;0.70;;;;;;;7.13;93.02;97907.81;4995841;28;20069;-77
2023/11/21 02:39:52;;;;;;;0.70;0.70;;;;;;;7.14;92.73;97911.41;4997354;28;20125;-77
2023/11/21 02:42:18;;;;;;;0.80;0.80;;;;;;;7.16;93.11;97905.28;4992857;28;20061;-76
2023/11/21 02:44:44;;;;;;;0.80;0.80;;;;;;;7.19;93.21;97899.19;4992206;28;20298;-76
2023/11/21 02:47:09;;;;;;;0.70;0.70;;;;;;;7.19;93.36;97904.47;4995678;28;20026;-76
2023/11/21 02:49:35;;;;;;;0.80;0.80;;;;;;;7.24;93.43;97905.50;4992744;28;20079;-76
2023/11/21 02:52:01;;;;;;;0.70;0.70;;;;;;;7.25;93.35;97904.66;4994322;28;20034;-76
2023/11/21 02:54:27;;;;;;;0.70;0.70;;;;;;;7.15;93.46;97900.81;4992503;28;20042;-76
2023/11/21 02:56:52;;;;;;;0.70;0.70;;;;;;;7.16;93.80;97904.38;4990310;28;20026;-76
2023/11/21 02:59:19;;;;;;;0.70;0.70;;;;;;;7.16;93.70;97894.66;4998820;28;20037;-76
2023/11/21 03:01:46;;;;;;;0.70;0.70;;;;;;;7.22;93.95;97901.91;4993902;28;20033;-76
2023/11/21 03:04:17;;;;;;;0.70;0.70;;;;;;;7.15;93.22;97910.53;4998680;28;20652;-76
2023/11/21 03:06:43;;;;;;;0.70;0.70;;;;;;;7.23;93.77;97905.44;4992767;28;20117;-76
2023/11/21 03:09:08;;;;;;;0.68;0.68;;;;;;;7.17;93.65;97911.47;4999834;28;20136;-77
2023/11/21 03:11:34;;;;;;;0.70;0.70;;;;;;;7.14;93.33;97912.31;4994474;28;20038;-77
2023/11/21 03:13:59;;;;;;;0.63;0.63;;;;;;;7.13;93.74;97914.88;4993312;28;20979;-76
2023/11/21 03:16:25;;;;;;;0.70;0.70;;;;;;;7.19;94.00;97915.09;4995518;28;20041;-77
2023/11/21 03:18:52;;;;;;;0.60;0.60;;;;;;;7.21;93.96;97913.38;4994314;28;20030;-76
2023/11/21 03:21:17;;;;;;;0.70;0.70;;;;;;;7.16;93.91;97909.69;4978285;28;20117;-76
2023/11/21 03:23:43;;;;;;;0.70;0.70;;;;;;;7.15;93.86;97913.19;4982493;28;20417;-76
2023/11/21 03:26:12;;;;;;;0.70;0.70;;;;;;;7.15;94.65;97918.50;4999133;28;20026;-76
2023/11/21 03:28:39;;;;;;;0.70;0.70;;;;;;;7.19;94.29;97915.09;4990770;28;20041;-76
2023/11/21 03:31:06;;;;;;;0.70;0.70;;;;;;;7.24;94.22;97916.13;4993093;28;20048;-76
2023/11/21 03:33:32;;;;;;;0.60;0.60;;;;;;;7.29;94.29;97910.94;4993969;28;20034;-76
2023/11/21 03:35:57;;;;;;;0.70;0.70;;;;;;;7.29;93.87;97911.84;4996285;28;20034;-76
2023/11/21 03:38:24;;;;;;;0.60;0.60;;;;;;;7.26;94.02;97913.50;4993222;28;20030;-76
2023/11/21 03:40:50;;;;;;;0.70;0.70;;;;;;;7.24;93.98;97913.47;4993403;28;20045;-76
2023/11/21 03:43:16;;;;;;;0.70;0.70;;;;;;;7.35;93.70;97914.66;4990816;28;20030;-76
2023/11/21 03:45:41;;;;;;;0.70;0.70;;;;;;;7.35;93.62;97917.31;4995038;28;20087;-76
2023/11/21 03:48:08;;;;;;;0.60;0.60;;;;;;;7.35;93.72;97909.34;4992280;28;20050;-76
2023/11/21 03:50:36;;;;;;;0.70;0.70;;;;;;;7.31;93.71;97914.53;4993206;28;20038;-76
2023/11/21 03:53:02;;;;;;;0.70;0.70;;;;;;;7.39;93.21;97907.69;4995209;28;20724;-76
2023/11/21 03:55:31;;;;;;;0.60;0.60;;;;;;;7.39;93.27;97913.91;4994845;28;20115;-76
2023/11/21 03:57:56;;;;;;;0.60;0.60;;;;;;;7.40;93.23;97918.34;4993553;28;20139;-76
2023/11/21 04:00:22;;;;;;;0.70;0.70;;;;;;;7.36;92.93;97924.41;4993060;28;20030;-77
2023/11/21 04:02:47;;;;;;;0.70;0.70;;;;;;;7.29;93.48;97933.06;4996742;28;20561;-76
2023/11/21 04:05:13;;;;;;;0.60;0.60;;;;;;;7.30;93.66;97934.84;4997394;28;20041;-76
2023/11/21 04:07:38;;;;;;;0.68;0.68;;;;;;;7.22;93.73;97920.47;4998070;28;20845;-76
2023/11/21 04:10:08;;;;;;;0.70;0.70;;;;;;;7.24;94.09;97929.38;4997644;28;20088;-76
2023/11/21 04:12:34;;;;;;;0.70;0.70;;;;;;;7.21;94.18;97918.66;4996764;28;20030;-76
2023/11/21 04:15:00;;;;;;;0.70;0.70;;;;;;;7.16;94.24;97920.28;4998512;28;20181;-76
2023/11/21 04:17:25;;;;;;;0.70;0.70;;;;;;;7.16;94.47;97926.50;5000096;28;20972;-76
2023/11/21 04:19:51;;;;;;;0.70;0.70;;;;;;;7.12;94.55;97923.69;4995737;28;20037;-76
2023/11/21 04:22:16;;;;;;;0.70;0.70;;;;;;;7.15;94.46;97924.69;4996167;28;20481;-75
2023/11/21 04:24:41;;;;;;;0.60;0.60;;;;;;;7.16;94.71;97925.59;4998542;28;20042;-75
2023/11/21 04:27:07;;;;;;;0.60;0.60;;;;;;;7.13;94.53;97926.41;4996176;28;20450;-75
2023/11/21 04:29:33;;;;;;;0.60;0.60;;;;;;;7.15;94.22;97921.16;4997699;28;20096;-76
2023/11/21 04:32:02;;;;;;;0.65;0.65;;;;;;;7.14;94.43;97933.53;4997632;28;20034;-75
2023/11/21 04:34:30;;;;;;;0.60;0.60;;;;;;;7.12;94.55;97929.00;4998875;28;20040;-76
2023/11/21 04:36:56;;;;;;;0.60;0.60;;;;;;;7.11;94.69;97932.53;4997572;28;20029;-75
2023/11/21 04:39:22;;;;;;;0.60;0.60;;;;;;;7.14;94.48;97932.63;4995699;28;20029;-75
2023/11/21 04:41:48;;;;;;;0.60;0.60;;;;;;;7.14;94.67;97937.94;4991950;28;20040;-75
2023/11/21 04:44:16;;;;;;;0.70;0.70;;;;;;;7.17;94.72;97927.38;5000425;28;20030;-76
2023/11/21 04:46:41;;;;;;;0.70;0.70;;;;;;;7.14;94.61;97929.97;4995401;28;20060;-76
2023/11/21 04:49:07;;;;;;;0.60;0.60;;;;;;;7.10;94.68;97936.94;5010460;28;20068;-76
2023/11/21 04:51:32;;;;;;;0.60;0.60;;;;;;;7.13;94.26;97936.09;4995691;28;20045;-76
2023/11/21 04:53:58;;;;;;;0.70;0.70;;;;;;;7.23;94.47;97927.56;4994449;28;20986;-76
2023/11/21 04:56:24;;;;;;;0.60;0.60;;;;;;;7.32;94.22;97932.25;4997165;28;20030;-76
2023/11/21 04:58:50;;;;;;;0.60;0.60;;;;;;;7.27;94.35;97929.44;4992801;28;20037;-76
2023/11/21 05:01:15;;;;;;;0.50;0.50;;;;;;;7.22;94.22;97943.44;5005709;28;20039;-76
2023/11/21 05:03:41;;;;;;;0.60;0.60;;;;;;;7.20;94.31;97936.34;4997755;28;20035;-76
2023/11/21 05:06:09;;;;;;;0.60;0.60;;;;;;;7.11;94.36;97951.09;4993838;28;20065;-76
2023/11/21 05:08:37;;;;;;;0.70;0.70;;;;;;;7.13;94.90;97947.63;4995372;28;20026;-76
2023/11/21 05:11:02;;;;;;;0.70;0.70;;;;;;;7.15;94.43;97943.28;4994228;28;20074;-76
2023/11/21 05:13:28;;;;;;;0.60;0.60;;;;;;;7.16;94.79;97946.81;5004382;28;20034;-76
2023/11/21 05:15:57;;;;;;;0.60;0.60;;;;;;;7.12;95.01;97945.81;4999007;28;20483;-76
2023/11/21 05:18:22;;;;;;;0.60;0.60;;;;;;;7.11;94.54;97949.34;4996418;28;20038;-76
2023/11/21 05:20:48;;;;;;;0.70;0.70;;;;;;;7.08;94.44;97959.84;4995366;28;20039;-76
2023/11/21 05:23:13;;;;;;;0.60;0.60;;;;;;;7.06;94.32;97955.34;4991391;28;20026;-76
2023/11/21 05:25:39;;;;;;;0.60;0.60;;;;;;;7.06;94.34;97958.91;4995365;28;20163;-75
2023/11/21 05:28:04;;;;;;;0.60;0.60;;;;;;;7.18;94.14;97963.66;4995391;28;20454;-75
2023/11/21 05:30:30;;;;;;;0.70;0.70;;;;;;;7.19;94.30;97962.84;4995202;28;20029;-75
2023/11/21 05:32:55;;;;;;;0.70;0.70;;;;;;;7.23;94.56;97964.69;4996559;28;21063;-76
2023/11/21 05:35:21;;;;;;;0.70;0.70;;;;;;;7.13;94.39;97973.25;4994346;28;20026;-76
2023/11/21 05:37:46;;;;;;;0.60;0.60;;;;;;;7.12;93.92;97979.41;4993814;28;20030;-76
2023/11/21 05:40:12;;;;;;;0.60;0.60;;;;;;;7.10;93.75;97978.47;4993245;28;20449;-76
2023/11/21 05:42:40;;;;;;;0.70;0.70;;;;;;;7.10;93.78;97983.78;4994856;28;20033;-76
2023/11/21 05:45:10;;;;;;;0.70;0.70;;;;;;;7.09;93.37;97984.59;4994125;28;20038;-76
2023/11/21 05:47:41;;;;;;;0.70;0.70;;;;;;;7.06;93.33;97982.78;4994687;28;20117;-76
2023/11/21 05:50:12;;;;;;;0.70;0.70;;;;;;;7.10;93.81;97983.78;4991675;28;20034;-76
2023/11/21 05:52:39;;;;;;;0.60;0.60;;;;;;;7.10;94.14;97989.09;4995301;28;20022;-77
2023/11/21 05:55:08;;;;;;;0.70;0.70;;;;;;;7.11;93.88;97983.81;4993453;28;20065;-76
2023/11/21 05:57:38;;;;;;;0.70;0.70;;;;;;;7.15;93.77;97988.38;4993905;28;20049;-76
2023/11/21 06:00:28;;;;;;;0.60;0.60;;;;;;;7.10;93.66;97991.75;4995222;28;20050;-76
2023/11/21 06:02:53;;;;;;;0.60;0.60;;;;;;;7.11;93.69;97985.56;4994782;28;20498;-77
2023/11/21 06:05:23;;;;;;;0.70;0.70;;;;;;;7.10;93.99;97999.69;4991860;28;20030;-76
2023/11/21 06:07:49;;;;;;;0.70;0.70;;;;;;;7.10;93.97;97991.75;4992378;28;20042;-77
2023/11/21 06:10:14;;;;;;;0.70;0.70;;;;;;;7.05;94.30;98003.97;4992122;28;20042;-77
2023/11/21 06:12:42;;;;;;;0.60;0.60;;;;;;;7.07;94.21;98004.91;4995141;28;20044;-77
2023/11/21 06:15:09;;;;;;;0.70;0.70;;;;;;;7.09;94.34;98003.19;4992780;28;20038;-77
2023/11/21 06:17:38;;;;;;;0.70;0.70;;;;;;;7.03;94.88;98006.53;4991790;28;20164;-76
2023/11/21 06:20:09;;;;;;;0.60;0.60;;;;;;;7.04;94.46;98010.09;4996499;28;20034;-77
2023/11/21 06:22:38;;;;;;;0.70;0.70;;;;;;;7.04;94.50;98010.09;4990405;28;20038;-77
2023/11/21 06:25:05;;;;;;;0.60;0.60;;;;;;;7.14;94.82;98012.22;4995787;28;20038;-76
2023/11/21 06:27:38;;;;;;;0.70;0.70;;;;;;;7.11;94.54;98015.66;4994295;28;20493;-77
2023/11/21 06:30:04;;;;;;;0.60;0.60;;;;;;;7.19;94.63;98015.91;4993045;28;20041;-76
2023/11/21 06:32:30;;;;;;;0.60;0.60;;;;;;;7.23;94.56;98016.88;4993547;28;20081;-77
2023/11/21 06:34:59;;;;;;;0.68;0.68;;;;;;;7.29;94.31;98027.69;4997627;28;20038;-77
2023/11/21 06:37:28;;;;;;;0.70;0.70;;;;;;;7.25;94.22;98018.72;4980852;28;20084;-76
2023/11/21 06:39:56;;;;;;;0.68;0.68;;;;;;;7.20;94.43;98025.66;4993539;28;20033;-77
2023/11/21 06:42:22;;;;;;;0.70;0.70;;;;;;;7.19;94.39;98027.41;4991905;28;20041;-76
2023/11/21 06:44:48;;;;;;;0.60;0.60;;;;;;;7.17;94.42;98028.19;4991845;28;20486;-76
2023/11/21 06:47:15;;;;;;;0.70;0.70;;;;;;;7.11;94.19;98030.66;4999914;28;20064;-76
2023/11/21 06:49:42;;;;;;;0.70;0.70;;;;;;;7.12;94.35;98038.66;4992696;28;20034;-77
2023/11/21 06:52:08;;;;;;;;;;;;;;;7.15;94.30;98032.56;4994468;28;20038;-77
2023/11/21 06:54:34;;;;;;;0.65;0.65;;;;;;;7.19;94.22;98032.72;4991567;28;19913;-76
2023/11/21 06:57:00;;;;;;;0.70;0.70;;;;;;;7.16;94.37;98032.59;4994815;28;20072;-77
2023/11/21 06:59:25;;;;;;;0.70;0.70;;;;;;;7.21;94.83;98035.41;4992193;28;20026;-76
2023/11/21 07:01:51;;;;;;;0.60;0.60;;;;;;;7.37;94.23;98040.31;4991746;28;20034;-77
2023/11/21 07:04:18;;;;;;;0.70;0.70;;;;;;;7.35;93.95;98043.78;4991708;28;20022;-77
2023/11/21 07:06:43;;;;;;;0.80;0.80;;;;;;;7.41;93.61;98050.16;4992210;28;20069;-77
2023/11/21 07:09:09;;;;;;;0.70;0.70;;;;;;;7.40;93.90;98058.09;4993727;28;20061;-77
2023/11/21 07:11:35;;;;;;;0.70;0.70;;;;;;;7.37;93.56;98058.00;4994791;28;20057;-76
2023/11/21 07:14:07;;;;;;;0.60;0.60;;;;;;;7.39;93.96;98058.97;4993467;28;20489;-77
2023/11/21 07:16:35;;;;;;;0.65;0.65;;;;;;;7.42;93.82;98070.53;4994082;28;20084;-76
2023/11/21 07:19:00;;;;;;;0.70;0.70;;;;;;;7.44;93.91;98063.53;4992361;28;20121;-77
2023/11/21 07:21:28;;;;;;;0.70;0.70;;;;;;;7.42;93.10;98067.00;4993965;28;20109;-77
2023/11/21 07:24:00;;;;;;;0.63;0.63;;;;;;;7.45;93.15;98061.78;4993532;28;20045;-77
2023/11/21 07:26:27;;;;;;;0.70;0.70;;;;;;;7.65;93.06;98070.34;4990858;28;20164;-77
2023/11/21 07:28:55;;;;;;;0.60;0.60;;;;;;;7.76;92.50;98063.63;5000082;28;20031;-77
2023/11/21 07:31:21;;;;;;;0.70;0.70;;;;;;;7.85;92.47;98063.84;4993120;28;20400;-77
2023/11/21 07:33:47;;;;;;;0.60;0.60;;;;;;;7.92;91.79;98071.16;4995251;28;20026;-77
2023/11/21 07:36:13;;;;;;;0.60;0.60;;;;;;;7.94;91.18;98069.44;4997335;28;20037;-77
2023/11/21 07:38:42;;;;;;;0.60;0.60;;;;;;;7.94;90.78;98082.72;4982046;28;20045;-77
2023/11/21 07:41:08;;;;;;;0.60;0.60;;;;;;;7.98;90.92;98081.94;4999956;28;20030;-76
2023/11/21 07:43:35;;;;;;;0.60;0.60;;;;;;;8.16;89.86;98080.69;4998621;28;20073;-76
2023/11/21 07:46:03;;;;;;;0.70;0.70;;;;;;;8.00;90.52;98082.03;4983456;28;20597;-76
2023/11/21 07:48:32;;;;;;;0.60;0.60;;;;;;;8.09;90.63;98084.00;4998870;28;20117;-76
2023/11/21 07:50:58;;;;;;;0.60;0.60;;;;;;;8.14;90.40;98090.34;5011853;28;20037;-76
2023/11/21 07:53:25;;;;;;;0.60;0.60;;;;;;;8.18;90.02;98087.81;5001451;28;20056;-76
2023/11/21 07:55:52;;;;;;;0.70;0.70;;;;;;;8.12;89.65;98100.06;5000311;28;20661;-76
2023/11/21 07:58:18;;;;;;;0.70;0.70;;;;;;;8.15;89.79;98101.06;4998503;28;20031;-76
2023/11/21 08:00:43;;;;;;;0.60;0.60;;;;;;;8.21;89.89;98102.97;4997069;28;20074;-76
2023/11/21 08:03:09;;;;;;;0.60;0.60;;;;;;;8.08;90.46;98103.47;4995023;28;20126;-76
2023/11/21 08:05:34;;;;;;;0.60;0.60;;;;;;;8.10;90.45;98105.34;4995504;28;20149;-75
2023/11/21 08:08:01;;;;;;;0.60;0.60;;;;;;;8.13;90.30;98104.50;5012314;28;20136;-76
2023/11/21 08:10:26;;;;;;;0.60;0.60;;;;;;;8.11;90.91;98103.56;4996343;28;20377;-76
2023/11/21 08:12:53;;;;;;;0.60;0.60;;;;;;;8.16;90.66;98108.16;5010420;28;20132;-76
2023/11/21 08:15:19;;;;;;;0.60;0.60;;;;;;;8.19;89.66;98108.25;4996240;28;20479;-76
2023/11/21 08:17:46;;;;;;;0.70;0.70;;;;;;;8.12;89.81;98110.69;4996356;28;20365;-76
2023/11/21 08:20:12;;;;;;;0.70;0.70;;;;;;;8.09;90.08;98114.13;4993984;28;20112;-76
2023/11/21 08:22:40;;;;;;;0.60;0.60;;;;;;;8.14;90.14;98116.91;4994383;28;20031;-75
2023/11/21 08:25:07;;;;;;;0.60;0.60;;;;;;;8.25;89.74;98115.50;4995775;28;20038;-76
2023/11/21 08:27:34;;;;;;;0.60;0.60;;;;;;;8.33;89.85;98115.69;4996640;28;20038;-76
2023/11/21 08:30:03;;;;;;;0.60;0.60;;;;;;;8.35;89.45;98112.22;4995172;28;20038;-75
2023/11/21 08:32:32;;;;;;;0.60;0.60;;;;;;;8.53;89.19;98110.94;4997596;28;20022;-75
2023/11/21 08:34:57;;;;;;;0.68;0.68;;;;;;;8.58;88.83;98115.56;4997032;28;20546;-76
2023/11/21 08:37:23;;;;;;;0.60;0.60;;;;;;;8.64;88.49;98106.84;4995839;28;20053;-75
2023/11/21 08:39:49;;;;;;;0.60;0.60;;;;;;;8.73;87.85;98117.72;4995182;28;20054;-75
2023/11/21 08:42:15;;;;;;;0.60;0.60;;;;;;;8.78;87.39;98121.41;4995426;28;20038;-75
2023/11/21 08:44:41;;;;;;;0.60;0.60;;;;;;;8.85;87.14;98118.03;4996445;28;20065;-75
2023/11/21 08:47:06;;;;;;;0.60;0.60;;;;;;;8.90;87.37;98113.72;4996525;28;20042;-75
2023/11/21 08:49:32;;;;;;;0.60;0.60;;;;;;;8.78;86.13;98121.41;4993773;28;20038;-75
2023/11/21 08:51:59;;;;;;;0.60;0.60;;;;;;;9.07;84.92;98119.50;4995593;28;20041;-75
2023/11/21 08:54:25;;;;;;;0.65;0.65;;;;;;;9.23;84.31;98121.66;4996259;28;20042;-75
2023/11/21 08:56:52;;;;;;;0.65;0.65;;;;;;;9.59;82.43;98115.44;4998316;28;20033;-76
2023/11/21 08:59:17;;;;;;;0.60;0.60;;;;;;;9.66;81.82;98130.66;4994851;28;20036;-75
2023/11/21 09:01:42;;;;;;;0.60;0.60;;;;;;;9.74;81.84;98129.09;4994010;28;20026;-76
2023/11/21 09:04:08;;;;;;;0.60;0.60;;;;;;;10.08;78.72;98128.94;4995968;28;20371;-75
2023/11/21 09:06:33;;;;;;;0.60;0.60;;;;;;;10.06;79.75;98125.31;4996073;28;20033;-76
2023/11/21 09:08:59;;;;;;;0.50;0.50;;;;;;;10.21;79.82;98133.66;4996008;28;20036;-75
2023/11/21 09:11:27;;;;;;;0.50;0.50;;;;;;;10.25;79.87;98133.78;4982370;28;20480;-76
2023/11/21 09:13:52;;;;;;;0.60;0.60;;;;;;;10.17;79.23;98135.34;4990792;28;20034;-76
2023/11/21 09:16:18;;;;;;;0.60;0.60;;;;;;;10.09;81.03;98134.28;4989630;28;20033;-77
2023/11/21 09:18:43;;;;;;;0.60;0.60;;;;;;;10.40;79.76;98141.19;4988827;28;20034;-77
2023/11/21 09:21:08;;;;;;;0.60;0.60;;;;;;;10.40;80.06;98146.53;4991707;28;20116;-77
2023/11/21 09:23:35;;;;;;;0.50;0.50;;;;;;;10.51;77.73;98144.97;4987528;28;20049;-77
2023/11/21 09:26:01;;;;;;;0.60;0.60;;;;;;;10.34;76.96;98142.81;4992958;28;20034;-76
2023/11/21 09:28:27;;;;;;;0.60;0.60;;;;;;;10.41;76.43;98144.75;4984718;28;20147;-77
2023/11/21 09:30:53;;;;;;;0.55;0.55;;;;;;;10.43;76.89;98153.69;5003665;28;20919;-77
2023/11/21 09:33:19;;;;;;;0.60;0.60;;;;;;;10.22;77.69;98143.44;4992152;28;20026;-76
2023/11/21 09:35:44;;;;;;;0.50;0.50;;;;;;;10.51;77.30;98144.06;4990721;28;20033;-76
2023/11/21 09:38:10;;;;;;;0.60;0.60;;;;;;;10.60;77.12;98146.03;4993855;28;20437;-76
2023/11/21 09:40:39;;;;;;;0.60;0.60;;;;;;;10.99;75.78;98144.09;4987736;28;20058;-76
2023/11/21 09:43:17;;;;;;;0.60;0.60;;;;;;;11.33;72.98;98144.69;4987510;28;20109;-76
2023/11/21 09:45:54;;;;;;;0.60;0.60;;;;;;;11.47;73.75;98142.25;4995531;28;20038;-76
2023/11/21 09:48:20;;;;;;;0.50;0.50;;;;;;;11.74;72.76;98145.34;4991249;28;20033;-76
2023/11/21 09:50:47;;;;;;;0.60;0.60;;;;;;;11.45;72.77;98144.91;4988954;28;21506;-76
2023/11/21 09:53:21;;;;;;;0.50;0.50;;;;;;;11.15;74.57;98155.03;4993468;28;20065;-76
2023/11/21 09:55:48;;;;;;;0.60;0.60;;;;;;;11.72;72.17;98156.88;4989755;28;20279;-76
2023/11/21 09:58:15;;;;;;;0.50;0.50;;;;;;;12.11;69.39;98150.34;4995689;28;20030;-76
2023/11/21 10:00:41;;;;;;;0.50;0.50;;;;;;;11.74;70.98;98158.72;4987583;28;20052;-76
2023/11/21 10:03:08;;;;;;;0.57;0.57;;;;;;;12.00;70.42;98155.53;4988691;28;20777;-76
2023/11/21 10:05:35;;;;;;;0.60;0.60;;;;;;;11.42;71.34;98154.63;4993280;28;20048;-76
2023/11/21 10:08:00;;;;;;;0.50;0.50;;;;;;;11.14;73.09;98162.16;4989593;28;20050;-76
2023/11/21 10:10:28;;;;;;;0.50;0.50;;;;;;;11.11;73.66;98163.88;4992792;28;20093;-76
2023/11/21 10:12:56;;;;;;;0.50;0.50;;;;;;;10.59;75.83;98168.22;4988914;28;20042;-76
2023/11/21 10:15:23;;;;;;;0.50;0.50;;;;;;;10.41;78.40;98166.09;4994072;28;20045;-76
2023/11/21 10:17:49;;;;;;;0.60;0.60;;;;;;;10.05;79.47;98167.06;4993275;28;20630;-77
2023/11/21 10:20:16;;;;;;;0.50;0.50;;;;;;;9.89;81.01;98170.25;4989690;28;20360;-77
2023/11/21 10:22:43;;;;;;;0.60;0.60;;;;;;;9.87;81.34;98174.63;4992197;28;20030;-77
2023/11/21 10:25:14;;;;;;;0.60;0.60;;;;;;;9.85;81.46;98174.59;4989292;28;20029;-76
2023/11/21 10:27:41;;;;;;;0.50;0.50;;;;;;;9.81;80.88;98171.84;4988310;28;20618;-76
2023/11/21 10:30:15;;;;;;;0.60;0.60;;;;;;;9.95;81.52;98178.38;4993336;28;20045;-77
2023/11/21 10:32:43;;;;;;;0.55;0.55;;;;;;;10.33;80.86;98178.34;4988572;28;20076;-77
2023/11/21 10:35:10;;;;;;;0.60;0.60;;;;;;;10.22;79.05;98179.00;4992218;28;20034;-77
2023/11/21 10:37:39;;;;;;;0.60;0.60;;;;;;;10.14;77.50;98179.69;4996025;28;20034;-77
2023/11/21 10:40:07;;;;;;;0.60;0.60;;;;;;;10.21;76.76;98176.31;4987379;28;20072;-77
2023/11/21 10:42:33;;;;;;;0.60;0.60;;;;;;;10.28;76.81;98172.94;4994801;28;20088;-77
2023/11/21 10:45:00;;;;;;;0.60;0.60;;;;;;;10.30;77.16;98170.28;4987663;28;20045;-77
2023/11/21 10:47:26;;;;;;;0.60;0.60;;;;;;;10.27;76.55;98174.69;4991125;28;20364;-77
2023/11/21 10:49:53;;;;;;;0.60;0.60;;;;;;;10.23;78.60;98174.56;4993505;28;20548;-77
2023/11/21 10:52:21;;;;;;;0.60;0.60;;;;;;;10.45;77.68;98181.28;4982464;28;20026;-77
2023/11/21 10:54:47;;;;;;;0.60;0.60;;;;;;;10.39;77.04;98178.47;4994810;28;20038;-77
2023/11/21 10:57:18;;;;;;;0.50;0.50;;;;;;;10.64;77.08;98171.91;4986146;28;20060;-77
2023/11/21 10:59:48;;;;;;;0.60;0.60;;;;;;;10.88;75.65;98160.81;4984324;28;20036;-77
2023/11/21 11:02:32;;;;;;;0.60;0.60;;;;;;;10.63;75.42;98170.97;4992669;28;20028;-78
2023/11/21 11:04:58;;;;;;;0.60;0.60;;;;;;;11.52;72.52;98173.50;4986783;28;20116;-77
2023/11/21 11:07:28;;;;;;;0.70;0.70;;;;;;;12.14;70.81;98171.78;4981999;28;20041;-77
2023/11/21 11:09:54;;;;;;;0.60;0.60;;;;;;;13.04;68.44;98165.75;4991764;28;20038;-77
2023/11/21 11:12:20;;;;;;;0.50;0.50;;;;;;;13.24;67.75;98171.34;4986966;28;20034;-77
2023/11/21 11:14:47;;;;;;;0.50;0.50;;;;;;;12.80;67.93;98174.41;4991750;28;20468;-77
2023/11/21 11:17:13;;;;;;;0.50;0.50;;;;;;;12.19;69.06;98165.63;4984972;28;20037;-77
2023/11/21 11:19:40;;;;;;;0.50;0.50;;;;;;;11.79;70.63;98172.16;4986064;28;20038;-75
2023/11/21 11:22:15;;;;;;;0.50;0.50;;;;;;;11.41;71.43;98168.84;4992885;28;20030;-76
2023/11/21 11:25:21;;;;;;;0.50;0.50;;;;;;;10.96;73.40;98170.72;4991363;28;20174;-76
2023/11/21 11:28:14;;;;;;;0.50;0.50;;;;;;;10.94;74.86;98176.91;4987415;28;20186;-77
2023/11/21 11:31:04;;;;;;;0.50;0.50;;;;;;;11.00;74.75;98169.91;4993058;28;20053;-76
2023/11/21 11:33:43;;;;;;;0.50;0.50;;;;;;;10.70;76.27;98174.69;4983656;28;20026;-76
2023/11/21 11:36:18;;;;;;;0.60;0.60;;;;;;;10.26;77.23;98174.69;4987214;28;20153;-77
2023/11/21 11:38:49;;;;;;;0.60;0.60;;;;;;;10.15;78.75;98178.81;4994389;28;20048;-77
2023/11/21 11:41:27;;;;;;;0.60;0.60;;;;;;;10.17;78.60;98182.44;4987350;28;20503;-77